Huvudsida
METAR-TAF:

METAR-TAF

Flygplatser :

Barcelona, Venezuela

latitud: 10-07N, longitud: 064-41W, höjd: 7 m

Aktuellt väderrapport

Denna rapport gjordes för 29 timmar och 54 minuter sedan, klockan 16:00 UTC
Temperatur 33°C
Fuktighet 59%
Tryck 1016 hPa
Sikt 10 km eller mer
Få moln på en höjd av 1000 ft

METAR: SVBC 171600Z /////KT 9999 FEW010 33/24 Q1016

Tid: 17:54 (21:54 UTC)

Väderprognos

Denna rapport gjordes för 23 timmar och 54 minuter sedan, klockan 22:00 UTC
Prognos gäller från 21 kl. 00 UTC till 22 kl. 00 UTC
Vind 8 kt från nordväst
Sikt 10 km eller mer
Få moln på en höjd av 1000 ft
Spridda moln på en höjd av 7000 ft
Blir
från 21 kl. 02 UTC till 21 kl. 04 UTC
Vind 10 kt från ost
Få moln på en höjd av 1300 ft

TAF: SVBC 202200Z 2100/2200 31008KT 9999 FEW010 SCT070 TX34/18Z TN24/09Z BECMG 2102/2104 09010KT FEW013

Aktuella väderrapporter och prognoser från 4000 flygplatser (METAR- och TAF-rapporter).

De tillgängliga stationerna syns som gula och röda prickar på kartan.

För musen över prickarna för att se namnen på stationerna.

Klicka sedan för att få väderrapporter och prognoser.

För att ändra kartan: Klicka på de gröna knapparna med ett svart kors på för att zooma in; den gröna knappen med ett streck på för att zooma ut; eller på de gröna pilarna för angränsande kartor.


METAR-TAF: